Weather observations for the past three days for
Pawtucket, North Central State Airport
Imperial (Metric)
Date Time (edt) Wind (mph) Vis. (mi.) Weather Sky Cond. Temperature (ºF) Relative Humidity Wind Chill (°F) Heat Index (°F) Pressure Precipitation (in)
Air Dwpt 6 hour altimeter (in) sea level (mb) 1 hr 3 hr 6 hr
Max. Min.
07 15:56 NW 13 G 20 10.00 Fair CLR 62.1 28 28% 29.7 1005.8
07 14:56 W 14 G 25 10.00 Fair CLR 62.1 27 26% 29.72 1006.3
07 13:56 NW 9 G 16 10.00 Fair CLR 62.1 32 63 48 32% 29.74 1006.8
07 12:56 W 15 G 21 10.00 Fair CLR 61 30.9 32% 29.75 1007.3
07 11:56 N 12 G 21 10.00 Fair CLR 57.9 36 44% 29.76 1007.7
07 10:56 NW 9 G 18 10.00 Partly Cloudy SCT035 57.9 44.1 60% 29.78 1008.1
07 09:56 W 8 10.00 Partly Cloudy SCT022 55 46.9 74% 29.78 1008.5
07 08:56 NW 9 10.00 Mostly Cloudy FEW010 BKN090 51.1 51.1 100% 29.78 1008.6
07 07:56 Vrbl 5 10.00 Overcast OVC090 48.2 0 55.9 48 0% 47 29.79 1008.9 0.01 0.23
07 06:56 NW 6 10.00 Rain BKN065 OVC080 48.2 0 0% 46 29.77 1008.2 0.06
07 05:56 NW 5 10.00 Light Rain FEW060 OVC075 48.2 0 0% 47 29.77 1008.2 0.01
07 04:56 Vrbl 7 10.00 Light Rain FEW044 OVC090 48.2 0 0% 46 29.76 1007.6 0.03 0.15
07 03:56 N 9 10.00 Heavy Rain FEW028 BKN046 OVC055 48.9 48.9 100% 45 29.74 1007.1 0.12
07 02:56 N 7 10.00 Overcast SCT011 OVC030 54 54 100% 29.72 1006.3
07 01:56 NW 5 10.00 Overcast BKN009 OVC023 55.9 55.9 57.9 55.9 100% 29.73 1006.7
07 00:56 W 7 10.00 Overcast SCT016 OVC021 57 57 100% 29.75 1007.2
06 23:56 W 6 6.00 Overcast with Haze OVC007 57.2 0 0% 29.74 1007.0
06 22:56 Vrbl 6 5.00 Overcast with Haze OVC005 57.2 0 0% 29.74 1006.9
06 21:56 Vrbl 6 5.00 Overcast with Haze OVC003 57.2 0 0% 29.74 1007.1
06 20:56 Vrbl 5 5.00 Overcast with Haze OVC003 55.4 0 0% 29.75 1007.5
06 19:56 Vrbl 7 9.00 Overcast OVC003 55.4 0 63 55.9 0% 29.75 1007.3 0.01 0.04
06 18:56 Vrbl 7 10.00 Light Rain OVC007 55.4 0 0% 29.75 1007.2 0.01
06 17:56 Vrbl 6 3.00 Light Rain OVC007 57.2 0 0% 29.75 1007.5
06 16:56 Vrbl 6 G 18 10.00 Overcast OVC011 59 59 100% 29.77 1007.8 0.02
06 15:56 SW 12 G 17 10.00 Light Rain BKN013 BKN028 OVC050 57.9 57.9 100% 29.78 1008.2 0.02
06 14:56 Vrbl 6 10.00 Light Rain FEW026 SCT046 63 55 76% 29.79 1008.6
06 13:56 SW 9 10.00 Fair CLR 66 55 71.1 61 68% 29.8 1008.9
06 12:56 Vrbl 6 G 25 10.00 Fair CLR 69.1 54 59% 29.81 1009.3
06 11:56 Vrbl 7 10.00 Fair CLR 70 55 59% 29.83 1010.0
06 10:56 SW 8 10.00 Fair CLR 69.1 55 61% 29.85 1010.5
06 09:56 SW 12 G 20 10.00 Fair CLR 68 54 61% 29.84 1010.4
06 08:56 SW 13 G 20 10.00 Fair CLR 64.9 55 70% 29.86 1011.0
06 07:56 SW 9 G 20 10.00 A Few Clouds FEW017 61 55.9 61 57 84% 29.87 1011.3
06 06:56 Vrbl 7 10.00 Fair CLR 57.9 55.9 93% 29.87 1011.4
06 05:56 Vrbl 7 10.00 Fair CLR 57 55.9 96% 29.86 1011.2
06 04:56 Vrbl 7 G 18 10.00 Fair CLR 57.9 55 90% 29.86 1011.0
06 03:56 SW 12 G 24 10.00 Fair CLR 59 55 87% 29.87 1011.2
06 02:56 Vrbl 6 G 22 10.00 Fair CLR 60.1 54 80% 29.86 1010.9
06 01:56 SW 8 G 18 10.00 Fair CLR 60.1 54 62.1 60.1 80% 29.86 1010.9
06 00:56 SW 12 G 26 10.00 Fair CLR 61 53.1 75% 29.88 1011.4
05 23:56 Vrbl 7 G 24 10.00 Fair CLR 62.1 51.1 67% 29.88 1011.5
05 22:56 SW 9 G 18 10.00 Fair CLR 62.1 50 65% 29.87 1011.4
05 21:56 SW 13 G 25 10.00 Fair CLR 62.1 50 65% 29.87 1011.2
05 20:56 SW 9 G 20 10.00 Fair CLR 61 50 67% 29.86 1011.1
05 19:56 SW 9 G 16 10.00 Fair CLR 62.1 50 80.1 62.1 65% 29.84 1010.4
05 18:56 S 10 G 24 10.00 Fair CLR 66 50 56% 29.81 1009.2
05 17:56 Vrbl 5 10.00 Fair CLR 71.1 48.9 46% 29.8 1009.1
05 16:56 S 8 G 22 10.00 Fair CLR 73 50 44% 29.79 1008.7
05 15:56 S 12 G 20 9.00 Fair CLR 73.9 50 43% 29.79 1008.7
05 14:56 S 10 G 20 10.00 Fair CLR 78.1 50 37% 79 29.79 1008.7
05 13:56 SW 9 G 22 10.00 Fair CLR 78.1 50 78.1 57 37% 79 29.81 1009.4
05 12:56 SE 8 G 18 10.00 Fair CLR 75 54 48% 78 29.82 1009.7
05 11:56 SE 9 10.00 Fair CLR 73 54 51% 29.85 1010.6
05 10:56 Vrbl 6 10.00 Fair CLR 71.1 51.1 49% 29.85 1010.6
05 09:56 Vrbl 6 10.00 Partly Cloudy FEW080 SCT100 66.9 52 59% 29.86 1011.1
05 08:56 Vrbl 6 10.00 Partly Cloudy SCT100 63 51.1 65% 29.87 1011.5
05 07:56 Vrbl 7 10.00 Fair CLR 57 51.1 57 48.9 81% 29.87 1011.2
05 06:56 S 5 10.00 Fair CLR 52 51.1 97% 29.86 1011.1
05 05:56 Vrbl 3 10.00 Fair CLR 48.9 48.9 100% 29.85 1010.6
05 04:56 Vrbl 6 10.00 Partly Cloudy SCT090 52 48.9 89% 29.85 1010.8
05 03:56 Vrbl 5 10.00 Fair CLR 50 48 93% 49 29.86 1011.0
05 02:56 S 5 10.00 Fair CLR 50 46.9 89% 49 29.86 1011.2
05 01:56 Vrbl 5 10.00 Fair CLR 51.1 46.9 57.9 50 86% 29.87 1011.4
05 00:56 S 5 10.00 Fair CLR 51.1 46 83% 29.88 1011.5
04 23:56 Vrbl 6 10.00 Fair CLR 53.1 46 77% 29.88 1011.7
04 22:56 SW 7 10.00 Fair CLR 54 45 72% 29.88 1011.6
04 21:56 SW 8 10.00 Fair CLR 54 43 67% 29.88 1011.7
04 20:56 S 9 10.00 Fair CLR 55.9 42.1 60% 29.86 1011.0
04 19:56 Vrbl 5 G 16 10.00 Fair CLR 57.9 39 70 57.9 50% 29.83 1009.9
04 18:56 SW 8 G 21 10.00 Fair CLR 62.1 37.9 41% 29.8 1009.3
04 17:56 SW 9 G 18 10.00 Fair CLR 66 37.9 36% 29.79 1008.9
04 16:56 SW 12 G 22 10.00 Fair CLR 66.9 37 33% 29.78 1008.5
Date Time (edt) Wind (mph) Vis. (mi.) Weather Sky Cond. Air Dwpt Max. Min. Relative Humidity Wind Chill (°F) Heat Index (°F) altimeter (in) sea level (mb) 1 hr 3 hr 6 hr
6 hour
Temperature (ºF) Pressure Precipitation (in)